Time;durP1;ratioP1;P1;durP2;ratioP2;P2;SDS_P1;SDS_P2;PMS_P1;PMS_P2;Temp;Humidity;BMP_temperature;BMP_pressure;BME280_temperature;BME280_humidity;BME280_pressure;Samples;Min_cycle;Max_cycle;Signal;HPM_P1;HPM_P2
2023/10/13 00:00:40;;;;;;;0.10;0.10;;;15.10;92.70;;;;;;5025976;28;20053;-72
2023/10/13 00:03:14;;;;;;;0.00;0.00;;;15.10;92.70;;;;;;5012653;28;20176;-73
2023/10/13 00:05:42;;;;;;;0.00;0.00;;;15.10;92.90;;;;;;5012267;28;20565;-73
2023/10/13 00:08:09;;;;;;;1.77;0.63;;;15.20;92.80;;;;;;5012061;28;20052;-73
2023/10/13 00:10:35;;;;;;;0.00;0.00;;;15.30;92.80;;;;;;5024604;28;20140;-73
2023/10/13 00:13:12;;;;;;;0.00;0.00;;;15.20;92.80;;;;;;5011388;28;20124;-73
2023/10/13 00:18:19;;;;;;;0.32;0.32;;;15.40;93.10;;;;;;5031194;28;20041;-73
2023/10/13 00:20:49;;;;;;;0.30;0.30;;;15.50;93.20;;;;;;5014726;28;20560;-73
2023/10/13 00:23:16;;;;;;;0.00;0.00;;;15.50;93.20;;;;;;5028984;28;20049;-73
2023/10/13 00:25:49;;;;;;;0.10;0.10;;;15.50;93.40;;;;;;5028012;28;20053;-73
2023/10/13 00:28:23;;;;;;;0.00;0.00;;;15.60;93.30;;;;;;5021978;28;20127;-73
2023/10/13 00:30:52;;;;;;;0.75;0.75;;;15.60;93.30;;;;;;5039039;28;20113;-73
2023/10/13 00:33:20;;;;;;;0.00;0.00;;;15.80;93.70;;;;;;5043262;28;20050;-73
2023/10/13 00:35:47;;;;;;;0.25;0.25;;;15.80;93.60;;;;;;5029465;28;20049;-73
2023/10/13 00:38:13;;;;;;;0.00;0.00;;;15.90;93.50;;;;;;5029331;28;20049;-73
2023/10/13 00:44:03;;;;;;;0.25;0.25;;;16.10;94.30;;;;;;5028743;28;20148;-73
2023/10/13 00:45:57;;;;;;;0.00;0.00;;;16.10;93.80;;;;;;5038701;28;20417;-72
2023/10/13 00:48:33;;;;;;;0.00;0.00;;;16.20;94.30;;;;;;5009548;28;20053;-72
2023/10/13 00:51:02;;;;;;;0.00;0.00;;;16.20;94.20;;;;;;5011668;28;20048;-72
2023/10/13 00:53:33;;;;;;;0.10;0.10;;;16.20;94.60;;;;;;5028084;28;20426;-73
2023/10/13 00:56:06;;;;;;;0.00;0.00;;;16.20;94.40;;;;;;5027778;28;20084;-73
2023/10/13 00:58:38;;;;;;;0.00;0.00;;;16.20;94.40;;;;;;5028768;28;20045;-72
2023/10/13 01:01:28;;;;;;;0.00;0.00;;;16.20;94.40;;;;;;5029677;28;20410;-72
2023/10/13 01:04:02;;;;;;;0.00;0.00;;;16.30;94.50;;;;;;5029342;28;20081;-73
2023/10/13 01:06:28;;;;;;;0.00;0.00;;;16.30;94.30;;;;;;5019018;28;20045;-73
2023/10/13 01:09:11;;;;;;;0.70;0.57;;;16.30;94.30;;;;;;5012446;28;20038;-72
2023/10/13 01:11:42;;;;;;;0.00;0.00;;;16.30;94.20;;;;;;5020541;28;20046;-72
2023/10/13 01:14:11;;;;;;;0.00;0.00;;;16.30;94.10;;;;;;5009791;28;20491;-73
2023/10/13 01:16:45;;;;;;;0.22;0.22;;;16.30;94.00;;;;;;5010309;28;20050;-72
2023/10/13 01:19:19;;;;;;;0.20;0.20;;;16.30;94.00;;;;;;5015856;28;20113;-72
2023/10/13 01:21:47;;;;;;;0.00;0.00;;;16.30;94.10;;;;;;5022547;28;20125;-73
2023/10/13 01:24:13;;;;;;;0.08;0.08;;;16.40;94.20;;;;;;5010266;28;20228;-72
2023/10/13 01:26:40;;;;;;;0.00;0.00;;;16.30;94.20;;;;;;5026512;28;20099;-73
2023/10/13 01:29:15;;;;;;;0.10;0.10;;;16.30;94.40;;;;;;5028756;28;20045;-73
2023/10/13 01:31:48;;;;;;;0.60;0.60;;;16.30;94.20;;;;;;5029626;28;20048;-72
2023/10/13 01:34:24;;;;;;;0.00;0.00;;;16.30;94.20;;;;;;5023696;28;20130;-72
2023/10/13 01:36:55;;;;;;;0.22;0.22;;;16.40;94.50;;;;;;5028961;28;20053;-72
2023/10/13 01:39:26;;;;;;;0.00;0.00;;;16.30;94.20;;;;;;5029172;28;20057;-72
2023/10/13 01:41:55;;;;;;;0.03;0.03;;;16.30;94.00;;;;;;5028054;28;20360;-72
2023/10/13 01:44:27;;;;;;;0.00;0.00;;;16.40;94.30;;;;;;5029602;28;20517;-73
2023/10/13 01:46:53;;;;;;;0.00;0.00;;;16.40;94.30;;;;;;5027700;28;20164;-73
2023/10/13 01:49:21;;;;;;;0.00;0.00;;;16.40;94.20;;;;;;5028546;28;20502;-73
2023/10/13 01:51:47;;;;;;;0.20;0.20;;;16.40;94.20;;;;;;5013090;28;20049;-73
2023/10/13 01:54:15;;;;;;;0.00;0.00;;;16.40;94.30;;;;;;5029393;28;20050;-73
2023/10/13 01:56:44;;;;;;;0.10;0.10;;;16.40;94.30;;;;;;5028790;28;20072;-73
2023/10/13 01:59:13;;;;;;;0.00;0.00;;;16.40;94.30;;;;;;5021752;28;20041;-73
2023/10/13 02:01:40;;;;;;;0.20;0.20;;;16.40;94.30;;;;;;5012879;28;20041;-73
2023/10/13 02:04:06;;;;;;;0.00;0.00;;;16.40;94.20;;;;;;5027419;28;20061;-73
2023/10/13 02:06:36;;;;;;;0.00;0.00;;;16.50;94.30;;;;;;5026072;28;20113;-73
2023/10/13 02:09:25;;;;;;;0.00;0.00;;;16.40;94.20;;;;;;5020225;28;20452;-73
2023/10/13 02:11:55;;;;;;;0.00;0.00;;;16.50;94.30;;;;;;5029173;28;20045;-73
2023/10/13 02:14:25;;;;;;;0.00;0.00;;;16.50;94.40;;;;;;5028659;28;20075;-73
2023/10/13 02:16:55;;;;;;;0.20;0.20;;;16.40;94.30;;;;;;5009307;28;20088;-73
2023/10/13 02:19:22;;;;;;;0.00;0.00;;;16.40;94.20;;;;;;5022601;28;20503;-74
2023/10/13 02:21:58;;;;;;;0.00;0.00;;;16.50;94.30;;;;;;5048252;28;20052;-73
2023/10/13 02:24:29;;;;;;;0.00;0.00;;;16.50;94.50;;;;;;5009231;28;20407;-72
2023/10/13 02:26:56;;;;;;;0.00;0.00;;;16.50;94.30;;;;;;5028019;28;20042;-73
2023/10/13 02:29:22;;;;;;;0.00;0.00;;;16.50;94.30;;;;;;5015667;28;20539;-73
2023/10/13 02:31:54;;;;;;;0.00;0.00;;;16.50;94.20;;;;;;5009121;28;20145;-73
2023/10/13 02:34:22;;;;;;;0.00;0.00;;;16.50;94.10;;;;;;5023646;28;20057;-73
2023/10/13 02:36:49;;;;;;;0.00;0.00;;;16.60;94.00;;;;;;5026306;28;20089;-73
2023/10/13 02:39:16;;;;;;;0.00;0.00;;;16.60;94.10;;;;;;5009683;28;20096;-73
2023/10/13 02:41:47;;;;;;;0.00;0.00;;;16.60;94.00;;;;;;5009365;28;20476;-73
2023/10/13 02:44:20;;;;;;;0.00;0.00;;;16.60;94.20;;;;;;5011644;28;20046;-73
2023/10/13 02:46:50;;;;;;;0.00;0.00;;;16.60;94.20;;;;;;5010269;28;20050;-73
2023/10/13 02:49:19;;;;;;;0.00;0.00;;;16.60;94.10;;;;;;5007127;28;20049;-73
2023/10/13 02:51:45;;;;;;;0.85;0.63;;;16.60;94.20;;;;;;5019897;28;20064;-73
2023/10/13 02:54:11;;;;;;;0.00;0.00;;;16.60;93.80;;;;;;5011730;28;20054;-73
2023/10/13 02:57:03;;;;;;;0.00;0.00;;;16.60;94.20;;;;;;5010946;28;20045;-73
2023/10/13 02:59:40;;;;;;;3.10;1.35;;;16.60;94.00;;;;;;5007464;28;20061;-73
2023/10/13 03:02:25;;;;;;;0.43;0.30;;;16.60;94.20;;;;;;5008501;28;20207;-73
2023/10/13 03:05:13;;;;;;;0.00;0.00;;;16.60;94.20;;;;;;5017445;28;20567;-73
2023/10/13 03:07:42;;;;;;;0.10;0.10;;;16.60;94.20;;;;;;5018483;28;20033;-73
2023/10/13 03:10:14;;;;;;;0.13;0.13;;;16.60;94.30;;;;;;5025847;28;20080;-73
2023/10/13 03:12:41;;;;;;;0.00;0.00;;;16.50;94.20;;;;;;5008762;28;20514;-73
2023/10/13 03:15:17;;;;;;;0.00;0.00;;;16.50;94.40;;;;;;5007766;28;20084;-73
2023/10/13 03:17:43;;;;;;;0.08;0.08;;;16.60;94.40;;;;;;5009205;28;20041;-73
2023/10/13 03:20:24;;;;;;;0.00;0.00;;;16.60;94.10;;;;;;5026924;28;20041;-73
2023/10/13 03:22:53;;;;;;;0.00;0.00;;;16.60;94.20;;;;;;5022709;28;20049;-73
2023/10/13 03:25:42;;;;;;;0.28;0.28;;;16.50;94.40;;;;;;5025806;28;20038;-73
2023/10/13 03:28:07;;;;;;;0.03;0.03;;;16.50;94.40;;;;;;5013893;28;20072;-73
2023/10/13 03:30:38;;;;;;;0.00;0.00;;;16.50;94.40;;;;;;5021918;28;20490;-73
2023/10/13 03:33:11;;;;;;;1.55;1.15;;;16.50;94.30;;;;;;5025228;28;20121;-73
2023/10/13 03:35:37;;;;;;;0.08;0.08;;;16.50;94.30;;;;;;5028353;28;20398;-73
2023/10/13 03:38:04;;;;;;;0.00;0.00;;;16.60;94.30;;;;;;5027891;28;20475;-73
2023/10/13 03:43:06;;;;;;;0.00;0.00;;;16.50;94.20;;;;;;5015650;28;20493;-73
2023/10/13 03:45:39;;;;;;;0.00;0.00;;;16.60;94.30;;;;;;5029042;28;20045;-73
2023/10/13 03:51:10;;;;;;;0.00;0.00;;;16.50;94.50;;;;;;5010966;28;20419;-73
2023/10/13 03:53:56;;;;;;;0.50;0.50;;;16.60;94.40;;;;;;5009518;28;20041;-73
2023/10/13 03:56:26;;;;;;;0.00;0.00;;;16.60;94.30;;;;;;5012193;28;20050;-74
2023/10/13 03:58:54;;;;;;;0.00;0.00;;;16.60;94.40;;;;;;5023805;28;20499;-73
2023/10/13 04:01:31;;;;;;;0.00;0.00;;;16.60;94.70;;;;;;5015273;28;20446;-74
2023/10/13 04:04:04;;;;;;;0.00;0.00;;;16.60;94.60;;;;;;5011497;28;20056;-73
2023/10/13 04:17:27;;;;;;;0.00;0.00;;;16.60;94.70;;;;;;5029909;28;20057;-73
2023/10/13 04:25:35;;;;;;;;;;;16.60;94.60;;;;;;5050793;28;20049;-72
2023/10/13 04:33:50;;;;;;;0.00;0.00;;;16.50;94.60;;;;;;5029407;28;20050;-71
2023/10/13 04:39:00;;;;;;;0.00;0.00;;;16.60;94.60;;;;;;5014786;28;20149;-72
2023/10/13 04:49:28;;;;;;;0.00;0.00;;;16.60;94.60;;;;;;5020577;28;20427;-71
2023/10/13 04:52:12;;;;;;;0.00;0.00;;;16.60;94.60;;;;;;5048063;28;20052;-71
2023/10/13 04:54:49;;;;;;;0.00;0.00;;;16.60;94.50;;;;;;5041907;28;20513;-71
2023/10/13 06:29:53;;;;;;;0.15;0.15;;;16.50;94.60;;;;;;5007729;28;20124;-69
2023/10/13 06:32:19;;;;;;;0.00;0.00;;;16.50;94.70;;;;;;5008954;28;20060;-70
2023/10/13 06:34:46;;;;;;;0.00;0.00;;;16.50;94.70;;;;;;5008818;28;20058;-70
2023/10/13 06:37:25;;;;;;;10.80;0.85;;;16.50;94.70;;;;;;5009083;28;20111;-70
2023/10/13 06:39:52;;;;;;;0.00;0.00;;;16.60;94.70;;;;;;5009069;28;20048;-70
2023/10/13 06:42:19;;;;;;;0.00;0.00;;;16.60;94.70;;;;;;5007892;28;20050;-70
2023/10/13 06:44:47;;;;;;;0.08;0.08;;;16.80;94.50;;;;;;5007875;28;20049;-69
2023/10/13 06:47:13;;;;;;;0.00;0.00;;;16.70;94.30;;;;;;4991191;28;20514;-69
2023/10/13 06:49:43;;;;;;;0.00;0.00;;;16.70;94.30;;;;;;5009081;28;20133;-68
2023/10/13 06:52:11;;;;;;;0.00;0.00;;;16.70;94.20;;;;;;5007646;28;20101;-69
2023/10/13 06:54:39;;;;;;;0.00;0.00;;;16.70;94.10;;;;;;5012331;28;20099;-69
2023/10/13 06:57:08;;;;;;;5.18;1.55;;;16.70;94.20;;;;;;5012978;28;20143;-69
2023/10/13 06:59:36;;;;;;;1.10;0.88;;;16.70;94.20;;;;;;5028117;28;20049;-69
2023/10/13 07:02:06;;;;;;;0.00;0.00;;;16.70;94.20;;;;;;5031058;28;20049;-69
2023/10/13 07:04:32;;;;;;;0.00;0.00;;;16.60;94.20;;;;;;5013473;28;20050;-70
2023/10/13 07:07:00;;;;;;;0.00;0.00;;;16.60;94.30;;;;;;5029779;28;20041;-69
2023/10/13 07:12:06;;;;;;;14.63;1.50;;;16.60;94.30;;;;;;5031573;28;20042;-69
2023/10/13 07:14:36;;;;;;;0.20;0.20;;;16.60;94.20;;;;;;5014772;28;20052;-69
2023/10/13 07:17:04;;;;;;;0.05;0.05;;;16.60;94.20;;;;;;5030843;28;20429;-69
2023/10/13 07:19:31;;;;;;;0.00;0.00;;;16.60;94.00;;;;;;5024935;28;20128;-68
2023/10/13 07:22:19;;;;;;;1.35;0.52;;;16.60;94.00;;;;;;5019374;28;20499;-69
2023/10/13 07:24:48;;;;;;;0.40;0.40;;;16.60;93.90;;;;;;5013949;28;20050;-68
2023/10/13 07:27:24;;;;;;;0.00;0.00;;;16.60;94.00;;;;;;5020903;28;20080;-69
2023/10/13 07:29:56;;;;;;;0.28;0.28;;;16.50;93.90;;;;;;5011833;28;20052;-68
2023/10/13 07:32:27;;;;;;;0.10;0.10;;;16.50;93.90;;;;;;5012633;28;20049;-69
2023/10/13 07:34:55;;;;;;;0.00;0.00;;;16.50;93.90;;;;;;5015557;28;20066;-68
2023/10/13 07:37:28;;;;;;;0.00;0.00;;;16.50;93.80;;;;;;5023775;28;20134;-69
2023/10/13 07:39:57;;;;;;;0.00;0.00;;;16.50;93.80;;;;;;5013592;28;20106;-68
2023/10/13 07:42:30;;;;;;;0.00;0.00;;;16.50;93.80;;;;;;5011416;28;20462;-68
2023/10/13 07:44:56;;;;;;;0.00;0.00;;;16.50;93.80;;;;;;5012358;28;20413;-68
2023/10/13 07:47:24;;;;;;;0.00;0.00;;;16.50;93.70;;;;;;5025335;28;20048;-68
2023/10/13 07:49:50;;;;;;;0.00;0.00;;;16.50;93.70;;;;;;5003691;28;20041;-69
2023/10/13 07:57:53;;;;;;;0.00;0.00;;;16.50;93.80;;;;;;5007644;28;20046;-69
2023/10/13 08:00:46;;;;;;;0.08;0.08;;;16.50;94.00;;;;;;4975225;28;20560;-69
2023/10/13 08:08:37;;;;;;;0.38;0.38;;;16.60;94.30;;;;;;5023074;28;20054;-69
2023/10/13 08:13:58;;;;;;;0.10;0.10;;;16.60;94.40;;;;;;5030741;28;20049;-69
2023/10/13 08:19:15;;;;;;;0.30;0.22;;;16.70;94.40;;;;;;5010950;28;20132;-69
2023/10/13 08:22:14;;;;;;;0.10;0.10;;;16.70;94.40;;;;;;5026523;28;20349;-69
2023/10/13 08:35:23;;;;;;;0.00;0.00;;;16.80;94.20;;;;;;5029966;28;20080;-69
2023/10/13 08:40:42;;;;;;;0.10;0.10;;;16.80;94.20;;;;;;5017638;28;20042;-69
2023/10/13 08:43:12;;;;;;;0.00;0.00;;;16.80;94.20;;;;;;5024805;28;20045;-69
2023/10/13 08:48:15;;;;;;;0.73;0.15;;;17.00;94.00;;;;;;5029270;28;20045;-69
2023/10/13 08:50:52;;;;;;;1.75;1.13;;;17.00;94.00;;;;;;5015760;28;20501;-69
2023/10/13 08:56:05;;;;;;;0.00;0.00;;;17.10;94.10;;;;;;5019422;28;20076;-69
2023/10/13 09:04:22;;;;;;;0.00;0.00;;;17.30;94.10;;;;;;5024536;28;20572;-70
2023/10/13 09:07:21;;;;;;;0.00;0.00;;;17.40;94.10;;;;;;5028897;28;20045;-70
2023/10/13 09:12:20;;;;;;;1.75;0.80;;;17.50;94.00;;;;;;5029797;28;20056;-70
2023/10/13 09:14:57;;;;;;;1.55;1.27;;;17.60;94.00;;;;;;5032645;28;20529;-70
2023/10/13 09:25:57;;;;;;;0.05;0.05;;;17.80;93.60;;;;;;5018461;28;20460;-68
2023/10/13 09:28:27;;;;;;;5.40;1.40;;;17.80;93.50;;;;;;5029318;28;20084;-69
2023/10/13 09:30:56;;;;;;;0.13;0.13;;;18.00;93.30;;;;;;5009472;28;20052;-69
2023/10/13 09:33:39;;;;;;;0.05;0.05;;;18.10;93.20;;;;;;5022088;28;20171;-69
2023/10/13 09:36:07;;;;;;;0.17;0.17;;;18.10;93.00;;;;;;5029371;28;20557;-69
2023/10/13 09:38:34;;;;;;;2.28;1.75;;;18.20;92.60;;;;;;5028161;28;20171;-69
2023/10/13 09:41:17;;;;;;;0.08;0.08;;;18.30;92.20;;;;;;5015511;28;20454;-69
2023/10/13 09:43:46;;;;;;;0.00;0.00;;;18.50;91.70;;;;;;5016727;28;20639;-69
2023/10/13 09:46:18;;;;;;;1.77;1.65;;;18.50;90.80;;;;;;5029028;28;20398;-69
2023/10/13 09:48:47;;;;;;;1.20;0.73;;;18.60;90.70;;;;;;5020037;28;20050;-69
2023/10/13 09:51:14;;;;;;;0.30;0.20;;;18.70;90.40;;;;;;5009271;28;20053;-69
2023/10/13 09:53:45;;;;;;;1.45;1.35;;;18.70;90.10;;;;;;5015334;28;20507;-69
2023/10/13 09:56:23;;;;;;;0.22;0.22;;;18.80;89.90;;;;;;5009255;28;20107;-70
2023/10/13 09:59:00;;;;;;;0.00;0.00;;;18.80;89.60;;;;;;5017503;28;20537;-69
2023/10/13 10:01:31;;;;;;;1.80;1.65;;;18.80;89.50;;;;;;5028930;28;20527;-70
2023/10/13 10:04:08;;;;;;;5.45;2.47;;;18.90;89.40;;;;;;5022593;28;20052;-70
2023/10/13 10:06:39;;;;;;;0.90;0.90;;;19.00;88.90;;;;;;5012983;28;20091;-70
2023/10/13 10:09:13;;;;;;;0.00;0.00;;;18.90;88.80;;;;;;5028124;28;20049;-70
2023/10/13 10:12:00;;;;;;;1.27;1.17;;;18.90;88.80;;;;;;5027803;28;20048;-69
2023/10/13 10:14:44;;;;;;;0.00;0.00;;;19.00;88.30;;;;;;5013317;28;20510;-69
2023/10/13 10:17:10;;;;;;;0.00;0.00;;;19.10;88.30;;;;;;5009502;28;20133;-69
2023/10/13 10:19:59;;;;;;;0.00;0.00;;;19.10;88.10;;;;;;5009307;28;20072;-69
2023/10/13 10:22:36;;;;;;;0.00;0.00;;;19.20;87.60;;;;;;5017091;28;20049;-69
2023/10/13 10:25:06;;;;;;;1.08;0.88;;;19.40;87.40;;;;;;5017115;28;20037;-69
2023/10/13 10:27:34;;;;;;;0.00;0.00;;;19.40;87.20;;;;;;5031444;28;20594;-70
2023/10/13 10:30:03;;;;;;;0.10;0.10;;;19.30;86.90;;;;;;5023043;28;20041;-68
2023/10/13 10:32:32;;;;;;;0.05;0.05;;;19.50;86.80;;;;;;5025011;28;20157;-70
2023/10/13 10:35:09;;;;;;;0.00;0.00;;;19.50;86.90;;;;;;5015289;28;20133;-69
2023/10/13 10:37:37;;;;;;;14.15;2.85;;;19.50;86.70;;;;;;5019417;28;20054;-70
2023/10/13 10:40:08;;;;;;;0.95;0.70;;;19.50;86.30;;;;;;5035518;28;20048;-70
2023/10/13 10:42:34;;;;;;;2.72;2.20;;;19.50;86.30;;;;;;5029171;28;20049;-69
2023/10/13 10:45:09;;;;;;;0.00;0.00;;;19.60;86.40;;;;;;5031569;28;20474;-70
2023/10/13 10:47:38;;;;;;;1.67;0.90;;;19.60;86.30;;;;;;5024928;28;20052;-69
2023/10/13 10:50:19;;;;;;;0.00;0.00;;;19.70;85.60;;;;;;5022093;28;20058;-70
2023/10/13 10:52:46;;;;;;;5.18;2.72;;;19.80;85.70;;;;;;5020480;28;20099;-69
2023/10/13 10:55:20;;;;;;;0.00;0.00;;;19.80;85.30;;;;;;5023613;28;20447;-69
2023/10/13 10:57:48;;;;;;;0.17;0.17;;;19.80;85.40;;;;;;5033323;28;20049;-70
2023/10/13 11:00:26;;;;;;;0.05;0.05;;;19.80;84.50;;;;;;5031018;28;20045;-70
2023/10/13 11:02:58;;;;;;;0.00;0.00;;;19.70;84.80;;;;;;5016217;28;20135;-69
2023/10/13 11:05:32;;;;;;;0.10;0.10;;;19.70;85.00;;;;;;5021755;28;20045;-70
2023/10/13 11:07:58;;;;;;;0.75;0.75;;;19.70;84.20;;;;;;5015417;28;20051;-69
2023/10/13 11:10:31;;;;;;;0.00;0.00;;;19.60;84.60;;;;;;5014546;28;20391;-70
2023/10/13 11:13:15;;;;;;;2.10;1.13;;;19.70;85.10;;;;;;5029550;28;20041;-70
2023/10/13 11:15:45;;;;;;;0.75;0.75;;;19.70;85.10;;;;;;5024399;28;20041;-70
2023/10/13 11:18:20;;;;;;;0.00;0.00;;;19.60;84.80;;;;;;5018659;28;20053;-69
2023/10/13 11:20:49;;;;;;;0.00;0.00;;;19.70;84.60;;;;;;5016729;28;20049;-69
2023/10/13 11:23:25;;;;;;;0.00;0.00;;;19.70;84.40;;;;;;5022869;28;20066;-70
2023/10/13 11:26:01;;;;;;;0.00;0.00;;;19.70;84.60;;;;;;5020341;28;20046;-69
2023/10/13 11:28:29;;;;;;;0.00;0.00;;;19.70;84.40;;;;;;5016971;28;20379;-69
2023/10/13 11:30:59;;;;;;;0.20;0.20;;;19.60;84.80;;;;;;5033502;28;20045;-70
2023/10/13 11:33:28;;;;;;;0.10;0.10;;;19.50;85.00;;;;;;5034009;28;20103;-70
2023/10/13 11:38:27;;;;;;;5.18;3.35;;;19.50;84.90;;;;;;5031632;28;20053;-69
2023/10/13 11:43:35;;;;;;;0.00;0.00;;;19.20;86.00;;;;;;5030877;28;20045;-70
2023/10/13 11:48:37;;;;;;;0.25;0.25;;;19.00;86.80;;;;;;5012360;28;20050;-72
2023/10/13 11:51:07;;;;;;;1.45;1.30;;;19.00;86.80;;;;;;5021781;28;20136;-71
2023/10/13 11:53:39;;;;;;;2.38;1.95;;;19.00;87.10;;;;;;4993819;28;20049;-71
2023/10/13 11:56:09;;;;;;;0.00;0.00;;;19.00;87.50;;;;;;5023156;28;20049;-72
2023/10/13 11:58:39;;;;;;;3.35;1.38;;;18.90;87.60;;;;;;5017084;28;20053;-71
2023/10/13 12:04:30;;;;;;;0.35;0.35;;;19.00;87.60;;;;;;5011497;28;20486;-71
2023/10/13 12:07:14;;;;;;;4.32;1.48;;;19.00;87.40;;;;;;5010956;28;20097;-71
2023/10/13 12:12:21;;;;;;;0.25;0.25;;;18.90;87.00;;;;;;5024842;28;20061;-70
2023/10/13 12:14:55;;;;;;;8.75;1.02;;;19.00;87.00;;;;;;5029260;28;20045;-70
2023/10/13 12:17:39;;;;;;;0.03;0.03;;;19.00;86.90;;;;;;5013341;28;20053;-68
2023/10/13 12:20:09;;;;;;;1.02;0.73;;;19.00;87.00;;;;;;5017799;28;20498;-69
2023/10/13 12:22:38;;;;;;;0.60;0.35;;;19.00;87.20;;;;;;5019218;28;20462;-69
2023/10/13 12:28:06;;;;;;;0.80;0.77;;;18.90;87.70;;;;;;5011303;28;20053;-68
2023/10/13 12:30:52;;;;;;;2.70;1.08;;;18.80;87.80;;;;;;5010379;28;20061;-69
2023/10/13 12:33:24;;;;;;;0.65;0.65;;;18.80;87.50;;;;;;5021253;28;20151;-68
2023/10/13 12:36:30;;;;;;;0.00;0.00;;;18.70;88.00;;;;;;5010231;28;20581;-68
2023/10/13 12:49:58;;;;;;;0.00;0.00;;;18.60;88.80;;;;;;5010138;28;20052;-68
2023/10/13 12:52:39;;;;;;;0.82;0.80;;;18.60;88.70;;;;;;5010883;28;20407;-68
2023/10/13 12:55:06;;;;;;;1.63;1.25;;;18.60;88.40;;;;;;5015782;28;20092;-68
2023/10/13 12:57:46;;;;;;;0.40;0.40;;;18.60;88.50;;;;;;5009923;28;20049;-68
2023/10/13 13:00:33;;;;;;;0.00;0.00;;;18.50;89.20;;;;;;5014530;28;20053;-68
2023/10/13 13:02:58;;;;;;;0.10;0.10;;;18.40;89.20;;;;;;5014164;28;20042;-68
2023/10/13 13:05:28;;;;;;;3.67;2.67;;;18.40;89.40;;;;;;5012400;28;20062;-68
2023/10/13 13:07:54;;;;;;;0.32;0.32;;;18.30;89.60;;;;;;5010869;28;20100;-67
2023/10/13 13:10:34;;;;;;;0.00;0.00;;;18.20;90.30;;;;;;4990123;28;20042;-68
2023/10/13 13:13:00;;;;;;;0.20;0.20;;;18.20;90.20;;;;;;4991066;28;20050;-68
2023/10/13 13:15:26;;;;;;;1.30;1.20;;;18.20;90.20;;;;;;4990450;28;20084;-67
2023/10/13 13:17:53;;;;;;;0.10;0.10;;;18.20;90.30;;;;;;4990676;28;20499;-68
2023/10/13 13:20:30;;;;;;;21.05;7.28;;;18.20;90.10;;;;;;4990613;28;20050;-68
2023/10/13 13:23:02;;;;;;;4.72;2.88;;;18.20;89.90;;;;;;4994548;28;20049;-67
2023/10/13 13:25:30;;;;;;;1.55;1.00;;;18.30;90.00;;;;;;4996297;28;20054;-67
2023/10/13 13:27:57;;;;;;;0.85;0.85;;;18.30;90.00;;;;;;4992410;28;20054;-67
2023/10/13 13:30:30;;;;;;;0.45;0.45;;;18.30;89.90;;;;;;4996290;28;20357;-67
2023/10/13 13:32:59;;;;;;;0.47;0.47;;;18.40;89.70;;;;;;4996687;28;20054;-67
2023/10/13 13:35:33;;;;;;;0.75;0.75;;;18.50;89.70;;;;;;4989206;28;20050;-67
2023/10/13 13:38:06;;;;;;;1.40;1.00;;;18.50;89.50;;;;;;4993584;28;20488;-67
2023/10/13 13:44:51;;;;;;;0.00;0.00;;;18.60;89.20;;;;;;4990237;28;20041;-67
2023/10/13 13:48:35;;;;;;;2.45;1.48;;;18.60;89.00;;;;;;4993556;28;20201;-66
2023/10/13 13:51:55;;;;;;;2.22;2.05;;;18.70;88.90;;;;;;4982500;28;20058;-67
2023/10/13 13:54:22;;;;;;;0.00;0.00;;;18.70;88.50;;;;;;4981117;28;20153;-67
2023/10/13 13:57:19;;;;;;;0.03;0.03;;;18.80;88.30;;;;;;4980972;28;20084;-67
2023/10/13 13:59:52;;;;;;;0.00;0.00;;;18.90;88.30;;;;;;4984035;28;20550;-67
2023/10/13 14:02:52;;;;;;;0.65;0.45;;;18.90;88.30;;;;;;4987709;28;20173;-67
2023/10/13 14:05:21;;;;;;;0.00;0.00;;;18.90;88.40;;;;;;4991063;28;20057;-69
2023/10/13 14:07:50;;;;;;;0.17;0.17;;;18.80;88.60;;;;;;4998555;28;20058;-65
2023/10/13 14:10:31;;;;;;;0.20;0.20;;;18.80;88.50;;;;;;4992191;28;20116;-67
2023/10/13 14:16:16;;;;;;;0.28;0.25;;;18.90;88.30;;;;;;4983144;28;20046;-67
2023/10/13 14:19:30;;;;;;;0.10;0.10;;;18.90;88.30;;;;;;4999494;28;20076;-66
2023/10/13 14:22:47;;;;;;;3.58;1.75;;;18.90;88.00;;;;;;4979978;28;20492;-67
2023/10/13 14:25:15;;;;;;;2.47;1.80;;;19.00;87.60;;;;;;4991538;28;20115;-67
2023/10/13 14:28:18;;;;;;;0.40;0.22;;;19.00;87.40;;;;;;4993850;28;20953;-67
2023/10/13 14:31:13;;;;;;;0.00;0.00;;;19.10;87.40;;;;;;4991617;28;20078;-67
2023/10/13 14:34:04;;;;;;;0.05;0.05;;;19.10;87.50;;;;;;4994931;28;20101;-67
2023/10/13 14:37:32;;;;;;;0.20;0.20;;;19.10;87.40;;;;;;4990797;28;20054;-67
2023/10/13 14:41:05;;;;;;;0.30;0.30;;;19.10;87.30;;;;;;4971337;28;20046;-66
2023/10/13 14:44:05;;;;;;;0.22;0.22;;;19.20;87.30;;;;;;4994222;28;20061;-67
2023/10/13 14:46:54;;;;;;;2.33;1.13;;;19.20;87.50;;;;;;4967049;28;20514;-67
2023/10/13 14:49:46;;;;;;;0.60;0.60;;;19.20;87.40;;;;;;4996124;28;20048;-67
2023/10/13 14:52:34;;;;;;;0.60;0.50;;;19.20;87.50;;;;;;4959475;28;20058;-66
2023/10/13 14:55:07;;;;;;;1.95;1.85;;;19.10;87.80;;;;;;4994235;28;20043;-68
2023/10/13 14:58:16;;;;;;;0.25;0.25;;;19.20;87.80;;;;;;4991032;28;20045;-68
2023/10/13 15:04:39;;;;;;;0.00;0.00;;;19.30;87.70;;;;;;4996183;28;20041;-68
2023/10/13 15:07:06;;;;;;;0.10;0.10;;;19.20;87.80;;;;;;4993151;28;20533;-68
2023/10/13 15:10:20;;;;;;;13.82;2.67;;;19.20;88.00;;;;;;4992950;28;20157;-67
2023/10/13 15:13:11;;;;;;;0.00;0.00;;;19.20;88.10;;;;;;4989889;28;20066;-67
2023/10/13 15:17:00;;;;;;;0.17;0.17;;;19.10;87.90;;;;;;4999233;28;20041;-68
2023/10/13 15:20:39;;;;;;;0.40;0.40;;;19.30;87.80;;;;;;4954297;28;21107;-68
2023/10/13 15:23:23;;;;;;;0.75;0.52;;;19.20;87.80;;;;;;4970455;28;20649;-68
2023/10/13 15:26:23;;;;;;;0.30;0.30;;;19.20;87.70;;;;;;5000616;28;20092;-66
2023/10/13 15:29:39;;;;;;;1.10;0.75;;;19.20;87.80;;;;;;4995942;28;20089;-68
2023/10/13 15:32:44;;;;;;;7.38;1.95;;;19.10;87.90;;;;;;5000562;28;20060;-68
2023/10/13 15:35:12;;;;;;;0.00;0.00;;;19.10;87.60;;;;;;4994032;28;20054;-68
2023/10/13 15:37:40;;;;;;;0.00;0.00;;;19.10;87.80;;;;;;4996209;28;20054;-68
2023/10/13 15:40:36;;;;;;;0.45;0.45;;;19.20;87.80;;;;;;4997187;28;20040;-68
2023/10/13 15:43:12;;;;;;;0.22;0.22;;;19.10;87.90;;;;;;4994187;28;20676;-68
2023/10/13 15:45:39;;;;;;;0.20;0.20;;;19.10;88.20;;;;;;4993629;28;20054;-67
2023/10/13 15:48:06;;;;;;;0.00;0.00;;;19.10;88.40;;;;;;4996468;28;20125;-67
2023/10/13 15:50:40;;;;;;;0.32;0.32;;;19.10;88.30;;;;;;4997346;28;20137;-66
2023/10/13 15:53:25;;;;;;;0.00;0.00;;;19.10;88.50;;;;;;4997763;28;20097;-66
2023/10/13 15:55:51;;;;;;;2.13;1.08;;;19.10;88.50;;;;;;4996936;28;20507;-65
2023/10/13 15:58:21;;;;;;;1.17;0.85;;;19.00;88.60;;;;;;4998002;28;20046;-67
2023/10/13 16:00:48;;;;;;;0.00;0.00;;;19.00;88.80;;;;;;4993540;28;20113;-66
2023/10/13 16:03:14;;;;;;;0.00;0.00;;;19.00;88.90;;;;;;4994927;28;20050;-65
2023/10/13 16:05:42;;;;;;;0.00;0.00;;;18.90;88.80;;;;;;4996731;28;20630;-66
2023/10/13 16:08:11;;;;;;;0.05;0.05;;;18.90;89.00;;;;;;4995961;28;20056;-66
2023/10/13 16:10:38;;;;;;;0.40;0.40;;;18.80;89.00;;;;;;4996390;28;20119;-66
2023/10/13 16:13:07;;;;;;;0.63;0.50;;;18.70;89.10;;;;;;4994771;28;20053;-67
2023/10/13 16:15:40;;;;;;;0.05;0.05;;;18.70;89.20;;;;;;5001017;28;20747;-66
2023/10/13 16:18:06;;;;;;;0.75;0.75;;;18.70;89.10;;;;;;4978177;28;20499;-67
2023/10/13 16:20:32;;;;;;;0.52;0.52;;;18.60;89.30;;;;;;4992233;28;20111;-66
2023/10/13 16:22:58;;;;;;;0.10;0.10;;;18.50;89.40;;;;;;4998139;28;20041;-66
2023/10/13 16:25:26;;;;;;;0.55;0.43;;;18.50;89.50;;;;;;4994963;28;20148;-66
2023/10/13 16:27:52;;;;;;;3.10;1.45;;;18.50;89.50;;;;;;4992711;28;20116;-67
2023/10/13 16:30:21;;;;;;;0.60;0.60;;;18.40;89.70;;;;;;4995409;28;20065;-67
2023/10/13 16:32:53;;;;;;;1.02;1.02;;;18.30;89.70;;;;;;4992401;28;20496;-67
2023/10/13 16:35:20;;;;;;;0.10;0.10;;;18.40;89.80;;;;;;4996748;28;20702;-67
2023/10/13 16:38:06;;;;;;;0.10;0.10;;;18.40;89.80;;;;;;4996140;28;20065;-67
2023/10/13 16:40:53;;;;;;;0.10;0.10;;;18.30;89.90;;;;;;4996826;28;20057;-67
2023/10/13 16:43:22;;;;;;;0.45;0.45;;;18.30;89.90;;;;;;4993025;28;20125;-66
2023/10/13 16:45:49;;;;;;;1.17;0.80;;;18.40;90.00;;;;;;4992277;28;20090;-66
2023/10/13 16:48:16;;;;;;;0.00;0.00;;;18.40;90.10;;;;;;4996018;28;20070;-65
2023/10/13 16:50:47;;;;;;;0.38;0.38;;;18.40;90.30;;;;;;4996728;28;20115;-65
2023/10/13 16:53:13;;;;;;;0.00;0.00;;;18.30;90.30;;;;;;5004718;28;20046;-66
2023/10/13 16:55:46;;;;;;;0.38;0.38;;;18.30;90.30;;;;;;4996425;28;20046;-66
2023/10/13 16:58:12;;;;;;;0.05;0.05;;;18.30;90.30;;;;;;4997813;28;20137;-66
2023/10/13 17:00:42;;;;;;;0.00;0.00;;;18.30;90.50;;;;;;4992655;28;20137;-65
2023/10/13 17:03:09;;;;;;;0.00;0.00;;;18.30;90.50;;;;;;5001031;28;20069;-66
2023/10/13 17:05:46;;;;;;;0.00;0.00;;;18.40;90.40;;;;;;4991876;28;20081;-66
2023/10/13 17:08:20;;;;;;;0.00;0.00;;;18.40;90.30;;;;;;4993100;28;20039;-66
2023/10/13 17:10:49;;;;;;;0.00;0.00;;;18.30;90.50;;;;;;4991541;28;20050;-66
2023/10/13 17:13:17;;;;;;;1.10;1.02;;;18.20;90.40;;;;;;4990885;28;20528;-67
2023/10/13 17:15:48;;;;;;;0.00;0.00;;;18.20;90.80;;;;;;4994776;28;20185;-67